Terminal Aerodrome Forecast
Issued by NWS

Home | Current Version | Previous Version | Text Only | Print | Product List | Glossary On
Versions: 1 2 3 4 5 6 7 8 9 10 11 12 13 14 15 16
000
FTUS43 KGRR 210300 AAB
TAFJXN
TAF AMD
KJXN 210323Z 2103/2124 21007KT P6SM OVC004
     FM210900 28006KT 3SM SHRA BR VCTS OVC015CB
     FM211800 36010KT P6SM BKN050=

USA.gov is the U.S. government's official web portal to all federal, state and local government web resources and services.